Pilar Observatorio, Argentina

1:53 AM ART on July 01, 2015 (GMT -0300)
Ferreyra | | Change Station
CLOSE
Current Station
Personal Weather Station
Location: Cordoba, CORDOBA
Elevation: 1335 ft
Nearby Weather Stations

Elev 1335 ft 31.45 °S, 64.12 °W | Updated 2 minutes ago

Clear
Clear
51.2 °F
Feels Like 51.2 °F
N
0.0
Wind Variable Wind from East
Gusts 0.0 mph

Today
High -- | Low -- °F
--% Chance of Precip.
Yesterday
High -- | Low -- °F
Precip. -- in
8:15 AM 6:22 PM
Waxing Gibbous, 99% visible
Pressure 30.18 in
Visibility -9999.0 miles
Clouds
Dew Point 37 °F
Humidity 59%
Rainfall 0.00 in
Snow Depth Not available.
UV Not available.
Pollen Not available.
Air Quality Not available.
Flu Activity Not available.
METAR SACO 010400Z 29005KT CAVOK 06/02 Q1022

More Conditions Fewer Conditions

Pressure 30.18 in
Visibility -9999.0 miles
Clouds
Dew Point 37 °F
Humidity 59%
Rainfall 0.00 in
Snow Depth Not available.
UV Not available.
Pollen Not available.
Air Quality Not available.
Flu Activity Not available.
METAR SACO 010400Z 29005KT CAVOK 06/02 Q1022

More Conditions Fewer Conditions

10-Day Weather Forecast

×

Almanac

Astronomy

Jul. 01, 2015 Rise Set
Actual Time
Civil Twilight
Nautical Twilight
Astronomical Twilight
Moon
Length of Visible Light
Length of Day
Tomorrow will be .
, % of the Moon is Illuminated

Today's Extremes

Country Highs Country Lows

Community

WunderPhotos

Upload Photos

1,834,146 photos uploaded!

WunderBlogs® & News

Nearby

Air Quality

  Air Quality AQ Index Pollutant
Not available.

Snow Depth

Station Depth Elevation

Earthquake Activity

City Distance Mag. Time & Date
Minimum magnitude displayed is 2.5.

Coastal Water Temperatures

Place Temperature

Stations

Nearby Weather Stations

Station Location Temp. Windchill Dew Point Humidity Wind Precip. Elev Updated Type